createdAt,value
2019-02-25T00:00:40.847Z,31.50
2019-02-25T00:03:09.449Z,32.58
2019-02-25T00:05:37.949Z,31.33
2019-02-25T00:08:06.453Z,27.25
2019-02-25T00:10:35.095Z,31.68
2019-02-25T00:13:03.569Z,31.35
2019-02-25T00:15:32.073Z,31.07
2019-02-25T00:18:00.551Z,26.93
2019-02-25T00:20:29.046Z,42.65
2019-02-25T00:22:57.524Z,36.42
2019-02-25T00:25:26.022Z,34.40
2019-02-25T00:27:54.496Z,30.62
2019-02-25T00:30:23.642Z,29.55
2019-02-25T00:32:52.128Z,35.52
2019-02-25T00:35:20.636Z,36.48
2019-02-25T00:37:49.128Z,35.13
2019-02-25T00:40:20.878Z,32.75
2019-02-25T00:42:49.401Z,33.30
2019-02-25T00:45:17.889Z,42.00
2019-02-25T00:47:46.379Z,39.08
2019-02-25T00:50:17.261Z,39.98
2019-02-25T00:52:45.759Z,41.55
2019-02-25T00:55:14.365Z,40.38
2019-02-25T00:57:42.844Z,44.13
2019-02-25T01:00:21.591Z,42.00
2019-02-25T01:02:50.072Z,34.25
2019-02-25T01:05:18.633Z,34.53
2019-02-25T01:07:47.128Z,33.75
2019-02-25T01:10:16.172Z,34.58
2019-02-25T01:12:45.461Z,36.85
2019-02-25T01:15:14.085Z,29.80
2019-02-25T01:17:42.560Z,34.43
2019-02-25T01:20:15.155Z,34.05
2019-02-25T01:22:43.646Z,34.90
2019-02-25T01:25:13.523Z,28.57
2019-02-25T01:27:42.005Z,31.68
2019-02-25T01:30:16.029Z,36.85
2019-02-25T01:35:12.990Z,34.10
2019-02-25T01:37:41.529Z,32.53
2019-02-25T01:40:17.722Z,32.58
2019-02-25T01:42:46.247Z,33.30
2019-02-25T01:45:21.071Z,33.83
2019-02-25T01:47:49.549Z,34.35
2019-02-25T01:50:18.023Z,30.32
2019-02-25T01:52:46.514Z,43.63
2019-02-25T01:55:15.018Z,34.43
2019-02-25T01:57:43.824Z,34.98
2019-02-25T02:00:16.423Z,38.05
2019-02-25T02:02:44.906Z,30.25
2019-02-25T02:05:13.390Z,33.20
2019-02-25T02:07:41.871Z,34.33
2019-02-25T02:10:15.030Z,35.43
2019-02-25T02:12:43.593Z,34.38
2019-02-25T02:15:14.792Z,31.62
2019-02-25T02:17:43.274Z,41.20
2019-02-25T02:20:13.796Z,32.40
2019-02-25T02:22:42.289Z,34.33
2019-02-25T02:25:11.528Z,34.75
2019-02-25T02:27:40.011Z,29.85
2019-02-25T02:30:17.732Z,34.53
2019-02-25T02:32:46.288Z,34.03
2019-02-25T02:35:14.824Z,34.40
2019-02-25T02:37:43.308Z,33.40
2019-02-25T02:40:13.144Z,37.05
2019-02-25T02:42:44.924Z,38.10
2019-02-25T02:45:19.627Z,33.38
2019-02-25T02:47:51.368Z,40.20
2019-02-25T02:50:21.984Z,32.55
2019-02-25T02:52:50.471Z,37.70
2019-02-25T02:55:18.955Z,39.38
2019-02-25T02:57:47.477Z,35.63
2019-02-25T03:00:17.585Z,33.20
2019-02-25T03:02:46.085Z,32.40
2019-02-25T03:05:15.818Z,34.78
2019-02-25T03:07:44.312Z,34.48
2019-02-25T03:10:15.509Z,31.77
2019-02-25T03:12:44.002Z,32.40
2019-02-25T03:15:17.498Z,33.90
2019-02-25T03:17:45.990Z,34.03
2019-02-25T03:20:14.483Z,34.35
2019-02-25T03:22:42.961Z,37.60
2019-02-25T03:25:13.584Z,32.08
2019-02-25T03:27:42.077Z,30.68
2019-02-25T03:30:16.746Z,29.52
2019-02-25T03:32:45.292Z,34.20
2019-02-25T03:35:13.775Z,34.05
2019-02-25T03:37:42.494Z,37.28
2019-02-25T03:40:13.323Z,31.62
2019-02-25T03:42:41.819Z,34.75
2019-02-25T03:45:12.589Z,32.13
2019-02-25T03:47:41.124Z,27.32
2019-02-25T03:50:09.738Z,30.60
2019-02-25T03:52:38.204Z,33.40
2019-02-25T03:55:15.101Z,33.35
2019-02-25T03:57:46.414Z,32.33
2019-02-25T04:00:17.588Z,29.90
2019-02-25T04:02:46.067Z,29.65
2019-02-25T04:05:14.552Z,33.00
2019-02-25T04:07:43.115Z,33.35
2019-02-25T04:10:13.137Z,31.07
2019-02-25T04:12:41.714Z,29.67
2019-02-25T04:15:12.492Z,43.15
2019-02-25T04:17:40.988Z,31.45
2019-02-25T04:20:12.071Z,31.65
2019-02-25T04:22:40.568Z,34.53
2019-02-25T04:25:09.054Z,34.58
2019-02-25T04:27:37.555Z,31.30
2019-02-25T04:30:09.275Z,32.70
2019-02-25T04:32:37.772Z,38.05
2019-02-25T04:35:08.281Z,30.02
2019-02-25T04:37:36.760Z,26.33
2019-02-25T04:40:07.794Z,32.83
2019-02-25T04:42:36.271Z,30.55
2019-02-25T04:45:07.740Z,33.13
2019-02-25T04:47:36.262Z,27.65
2019-02-25T04:50:06.090Z,35.45
2019-02-25T04:52:34.558Z,25.82
2019-02-25T04:55:03.071Z,22.62
2019-02-25T04:57:31.545Z,23.92
2019-02-25T05:00:00.030Z,27.80
2019-02-25T05:02:28.538Z,32.98
2019-02-25T05:04:57.062Z,30.27
2019-02-25T05:07:25.623Z,31.15
2019-02-25T05:09:54.173Z,26.25
2019-02-25T05:12:22.662Z,27.95
2019-02-25T05:14:51.149Z,33.75
2019-02-25T05:17:19.636Z,31.73
2019-02-25T05:19:48.127Z,27.05
2019-02-25T05:22:16.630Z,25.25
2019-02-25T05:24:45.109Z,28.23
2019-02-25T05:27:13.650Z,32.98
2019-02-25T05:29:42.145Z,40.52
2019-02-25T05:32:10.615Z,25.70
2019-02-25T05:34:39.112Z,32.13
2019-02-25T05:37:07.597Z,24.52
2019-02-25T05:39:36.109Z,29.20
2019-02-25T05:42:04.529Z,25.72
2019-02-25T05:44:33.028Z,28.15
2019-02-25T05:47:01.500Z,37.73
2019-02-25T05:49:30.074Z,32.73
2019-02-25T05:51:58.573Z,30.62
2019-02-25T05:54:27.111Z,28.25
2019-02-25T05:56:55.580Z,34.25
2019-02-25T05:59:25.106Z,25.85
2019-02-25T06:01:53.571Z,29.92
2019-02-25T06:04:22.038Z,27.90
2019-02-25T06:06:50.557Z,36.80
2019-02-25T06:09:19.028Z,37.73
2019-02-25T06:11:47.573Z,36.58
2019-02-25T06:14:16.027Z,45.43
2019-02-25T06:16:44.565Z,29.65
2019-02-25T06:19:13.040Z,32.15
2019-02-25T06:21:41.526Z,33.23
2019-02-25T06:24:10.029Z,37.90
2019-02-25T06:26:38.769Z,34.30
2019-02-25T06:29:07.325Z,32.13
2019-02-25T06:31:35.800Z,29.42
2019-02-25T06:34:04.331Z,36.58
2019-02-25T06:36:32.812Z,32.48
2019-02-25T06:39:01.284Z,35.65
2019-02-25T06:41:29.780Z,34.73
2019-02-25T06:43:58.261Z,32.00
2019-02-25T06:46:26.753Z,27.90
2019-02-25T06:48:55.236Z,45.67
2019-02-25T06:51:23.761Z,45.28
2019-02-25T06:53:52.311Z,33.08
2019-02-25T06:56:20.794Z,30.05
2019-02-25T06:58:49.327Z,24.85
2019-02-25T07:01:17.835Z,30.62
2019-02-25T07:03:47.943Z,25.70
2019-02-25T07:06:18.166Z,26.68
2019-02-25T07:08:50.936Z,35.43
2019-02-25T07:11:26.776Z,20.48
2019-02-25T07:14:02.788Z,25.57
2019-02-25T07:16:35.730Z,25.65
2019-02-25T07:19:14.666Z,22.05
2019-02-25T07:21:44.793Z,21.23
2019-02-25T07:24:23.852Z,24.10
2019-02-25T07:27:12.095Z,21.77
2019-02-25T07:29:45.440Z,39.48
2019-02-25T07:32:21.245Z,24.00
2019-02-25T07:35:03.170Z,26.07
2019-02-25T07:37:48.075Z,26.87
2019-02-25T07:40:26.928Z,27.95
2019-02-25T07:43:08.845Z,32.55
2019-02-25T07:45:39.007Z,35.55
2019-02-25T07:48:14.783Z,33.85
2019-02-25T07:50:59.784Z,36.77
2019-02-25T07:53:32.739Z,39.38
2019-02-25T07:56:17.722Z,41.30
2019-02-25T07:59:07.521Z,31.97
2019-02-25T08:01:43.319Z,37.58
2019-02-25T08:04:25.138Z,34.10
2019-02-25T08:07:01.144Z,33.40
2019-02-25T08:09:37.020Z,34.85
2019-02-25T08:12:09.764Z,41.95
2019-02-25T08:14:39.901Z,42.60
2019-02-25T08:17:26.134Z,38.45
2019-02-25T08:20:01.892Z,40.90
2019-02-25T08:22:32.058Z,43.35
2019-02-25T08:25:07.922Z,39.98
2019-02-25T08:27:43.865Z,47.95
2019-02-25T08:30:29.107Z,40.10
2019-02-25T08:33:11.036Z,37.05
2019-02-25T08:35:50.137Z,36.40
2019-02-25T08:38:25.816Z,40.80
2019-02-25T08:41:06.117Z,35.43
2019-02-25T08:43:45.183Z,44.60
2019-02-25T08:46:21.121Z,31.80
2019-02-25T08:49:09.179Z,36.55
2019-02-25T08:51:37.667Z,33.00
2019-02-25T08:54:06.167Z,39.42
2019-02-25T08:56:34.649Z,43.80
2019-02-25T08:59:03.160Z,33.30
2019-02-25T09:01:31.949Z,38.88
2019-02-25T09:04:00.420Z,39.18
2019-02-25T09:06:28.912Z,38.17
2019-02-25T09:08:57.371Z,32.55
2019-02-25T09:11:25.877Z,34.45
2019-02-25T09:13:54.346Z,35.03
2019-02-25T09:16:22.918Z,28.50
2019-02-25T09:18:51.383Z,37.13
2019-02-25T09:21:19.851Z,41.23
2019-02-25T09:23:48.353Z,31.10
2019-02-25T09:26:16.849Z,41.83
2019-02-25T09:28:45.349Z,33.18
2019-02-25T09:31:13.820Z,24.70
2019-02-25T09:33:42.352Z,25.00
2019-02-25T09:36:10.836Z,30.10
2019-02-25T09:38:39.338Z,29.35
2019-02-25T09:41:07.827Z,26.65
2019-02-25T09:43:36.312Z,24.45
2019-02-25T09:46:04.803Z,25.72
2019-02-25T09:48:33.300Z,23.92
2019-02-25T09:51:01.813Z,22.10
2019-02-25T09:53:30.302Z,26.85
2019-02-25T09:55:58.773Z,24.60
2019-02-25T09:58:27.281Z,23.57
2019-02-25T10:00:55.788Z,22.62
2019-02-25T10:03:24.311Z,24.85
2019-02-25T10:05:52.815Z,20.30
2019-02-25T10:08:21.291Z,22.00
2019-02-25T10:10:49.825Z,20.08
2019-02-25T10:13:18.301Z,20.85
2019-02-25T10:15:46.855Z,25.65
2019-02-25T10:18:15.349Z,19.85
2019-02-25T10:20:43.848Z,19.45
2019-02-25T10:23:12.360Z,21.77
2019-02-25T10:25:40.846Z,19.00
2019-02-25T10:28:09.376Z,19.02
2019-02-25T10:30:37.844Z,22.90
2019-02-25T10:33:06.340Z,19.20
2019-02-25T10:35:34.854Z,17.82
2019-02-25T10:38:03.345Z,20.60
2019-02-25T10:40:31.848Z,19.00
2019-02-25T10:43:00.343Z,22.25
2019-02-25T10:45:28.847Z,20.32
2019-02-25T10:47:58.767Z,18.85
2019-02-25T10:50:28.820Z,16.75
2019-02-25T10:53:03.503Z,20.52
2019-02-25T10:55:33.848Z,24.82
2019-02-25T10:58:03.796Z,20.82
2019-02-25T11:00:32.367Z,22.27
2019-02-25T11:03:00.849Z,22.17
2019-02-25T11:05:30.562Z,24.25
2019-02-25T11:08:00.033Z,19.98
2019-02-25T11:10:35.898Z,19.95
2019-02-25T11:13:04.513Z,22.37
2019-02-25T11:15:34.466Z,20.90
2019-02-25T11:18:02.941Z,22.73
2019-02-25T11:20:33.008Z,26.62
2019-02-25T11:23:02.247Z,20.82
2019-02-25T11:25:31.321Z,22.85
2019-02-25T11:28:04.395Z,25.35
2019-02-25T11:30:32.042Z,25.02
2019-02-25T11:33:00.591Z,21.42
2019-02-25T11:35:29.113Z,22.80
2019-02-25T11:37:59.644Z,26.17
2019-02-25T11:40:29.039Z,24.15
2019-02-25T11:42:58.138Z,24.75
2019-02-25T11:45:26.615Z,21.50
2019-02-25T11:47:55.126Z,25.75
2019-02-25T11:50:23.607Z,28.05
2019-02-25T11:52:52.095Z,24.47
2019-02-25T11:55:21.968Z,26.25
2019-02-25T11:57:50.570Z,24.15
2019-02-25T12:00:26.370Z,29.65
2019-02-25T12:02:54.848Z,29.30
2019-02-25T12:05:23.398Z,23.87
2019-02-25T12:07:51.901Z,25.68
2019-02-25T12:10:20.378Z,26.05
2019-02-25T12:12:48.883Z,24.85
2019-02-25T12:15:21.589Z,25.17
2019-02-25T12:17:52.892Z,31.90
2019-02-25T12:20:22.478Z,26.07
2019-02-25T12:22:51.167Z,22.20
2019-02-25T12:25:24.856Z,28.52
2019-02-25T12:27:53.356Z,24.75
2019-02-25T12:30:26.208Z,27.77
2019-02-25T12:32:54.693Z,30.13
2019-02-25T12:35:23.330Z,26.82
2019-02-25T12:37:51.805Z,33.20
2019-02-25T12:40:20.538Z,35.95
2019-02-25T12:42:49.059Z,37.42
2019-02-25T12:45:17.575Z,26.40
2019-02-25T12:47:46.143Z,26.27
2019-02-25T12:50:16.726Z,28.50
2019-02-25T12:52:45.196Z,25.90
2019-02-25T12:55:16.014Z,25.92
2019-02-25T12:57:44.490Z,27.32
2019-02-25T13:00:17.025Z,37.15
2019-02-25T13:02:45.492Z,26.60
2019-02-25T13:05:19.665Z,26.57
2019-02-25T13:07:48.175Z,22.40
2019-02-25T13:10:17.501Z,32.93
2019-02-25T13:12:46.119Z,27.35
2019-02-25T13:15:16.060Z,28.77
2019-02-25T13:17:44.630Z,29.75
2019-02-25T13:20:14.036Z,22.10
2019-02-25T13:22:42.622Z,25.02
2019-02-25T13:25:16.892Z,23.98
2019-02-25T13:27:45.550Z,21.37
2019-02-25T13:30:15.495Z,21.30
2019-02-25T13:32:45.013Z,23.55
2019-02-25T13:35:14.565Z,21.80
2019-02-25T13:37:43.122Z,25.37
2019-02-25T13:40:14.883Z,23.57
2019-02-25T13:42:43.365Z,26.85
2019-02-25T13:45:18.101Z,25.88
2019-02-25T13:47:46.694Z,19.32
2019-02-25T13:50:17.266Z,20.88
2019-02-25T13:52:48.642Z,29.05
2019-02-25T13:55:19.229Z,22.77
2019-02-25T13:57:49.568Z,23.52
2019-02-25T14:00:27.215Z,21.70
2019-02-25T14:02:55.811Z,21.12
2019-02-25T14:05:24.322Z,24.02
2019-02-25T14:07:54.425Z,23.75
2019-02-25T14:10:23.102Z,20.82
2019-02-25T14:12:51.584Z,23.73
2019-02-25T14:15:23.960Z,23.12
2019-02-25T14:17:52.433Z,21.55
2019-02-25T14:20:23.062Z,19.73
2019-02-25T14:22:51.572Z,21.60
2019-02-25T14:25:27.839Z,18.42
2019-02-25T14:27:56.697Z,17.20
2019-02-25T14:30:26.143Z,22.22
2019-02-25T14:32:57.127Z,18.48
2019-02-25T14:35:33.269Z,19.17
2019-02-25T14:38:15.250Z,20.08
2019-02-25T14:40:43.806Z,16.67
2019-02-25T14:43:15.100Z,16.07
2019-02-25T14:45:51.789Z,18.12
2019-02-25T14:48:36.660Z,25.85
2019-02-25T14:51:58.800Z,22.87
2019-02-25T14:54:38.191Z,21.30
2019-02-25T14:57:09.476Z,20.90
2019-02-25T14:59:38.227Z,26.85
2019-02-25T15:02:08.276Z,19.57
2019-02-25T15:04:39.555Z,27.30
2019-02-25T15:07:08.715Z,23.47
2019-02-25T15:09:41.362Z,26.68
2019-02-25T15:12:11.535Z,23.27
2019-02-25T15:15:04.752Z,25.92
2019-02-25T15:17:16.375Z,27.73
2019-02-25T15:19:52.122Z,27.73
2019-02-25T15:22:23.872Z,26.87
2019-02-25T15:25:13.712Z,25.32
2019-02-25T15:27:46.038Z,25.12
2019-02-25T15:30:25.082Z,26.73
2019-02-25T15:33:10.141Z,34.08
2019-02-25T15:35:39.382Z,28.65
2019-02-25T15:38:14.163Z,23.10
2019-02-25T15:40:43.451Z,32.63
2019-02-25T15:43:21.262Z,32.93
2019-02-25T15:45:51.198Z,28.70
2019-02-25T15:48:24.254Z,25.95
2019-02-25T15:51:01.452Z,26.42
2019-02-25T15:53:51.919Z,23.30
2019-02-25T15:56:52.798Z,31.23
2019-02-25T15:59:33.474Z,31.12
2019-02-25T16:02:14.198Z,28.12
2019-02-25T16:04:45.263Z,29.07
2019-02-25T16:07:16.878Z,32.25
2019-02-25T16:09:45.618Z,30.57
2019-02-25T16:12:17.358Z,41.15
2019-02-25T16:14:55.264Z,40.25
2019-02-25T16:17:27.605Z,36.58
2019-02-25T16:20:14.857Z,39.05
2019-02-25T16:22:43.846Z,35.25
2019-02-25T16:25:22.971Z,39.48
2019-02-25T16:27:59.355Z,48.68
2019-02-25T16:30:30.443Z,40.85
2019-02-25T16:33:02.104Z,36.08
2019-02-25T16:35:29.908Z,37.28
2019-02-25T16:38:00.340Z,51.92
2019-02-25T16:40:31.482Z,45.98
2019-02-25T16:43:02.180Z,47.05
2019-02-25T16:45:35.070Z,49.40
2019-02-25T16:48:02.472Z,43.10
2019-02-25T16:50:31.444Z,41.95
2019-02-25T16:53:03.608Z,48.95
2019-02-25T16:55:33.524Z,48.63
2019-02-25T16:58:06.062Z,56.58
2019-02-25T17:00:35.492Z,48.25
2019-02-25T17:03:06.530Z,48.65
2019-02-25T17:05:37.339Z,46.25
2019-02-25T17:08:08.011Z,48.48
2019-02-25T17:10:35.929Z,46.80
2019-02-25T17:13:05.926Z,55.58
2019-02-25T17:15:34.786Z,58.33
2019-02-25T17:18:04.422Z,51.77
2019-02-25T17:20:40.859Z,57.73
2019-02-25T17:23:16.836Z,58.10
2019-02-25T17:25:58.720Z,54.70
2019-02-25T17:28:29.168Z,58.75
2019-02-25T17:30:59.547Z,53.63
2019-02-25T17:33:32.553Z,59.75
2019-02-25T17:36:01.546Z,63.77
2019-02-25T17:38:30.745Z,63.60
2019-02-25T17:41:03.092Z,65.00
2019-02-25T17:43:34.756Z,61.68
2019-02-25T17:46:09.914Z,72.27
2019-02-25T17:48:39.757Z,68.65
2019-02-25T17:51:10.039Z,76.20
2019-02-25T17:53:45.990Z,62.95
2019-02-25T17:56:18.639Z,66.37
2019-02-25T17:58:48.492Z,62.23
2019-02-25T18:01:21.968Z,68.83
2019-02-25T18:03:50.623Z,64.53
2019-02-25T18:06:20.163Z,69.22
2019-02-25T18:08:51.012Z,72.67
2019-02-25T18:11:22.358Z,59.73
2019-02-25T18:13:51.323Z,68.05
2019-02-25T18:16:21.104Z,64.75
2019-02-25T18:18:51.989Z,57.98
2019-02-25T18:21:20.018Z,62.13
2019-02-25T18:23:49.434Z,62.90
2019-02-25T18:26:21.443Z,57.20
2019-02-25T18:28:50.709Z,59.75
2019-02-25T18:31:23.363Z,56.30
2019-02-25T18:33:59.627Z,52.13
2019-02-25T18:36:34.401Z,61.00
2019-02-25T18:39:03.350Z,58.15
2019-02-25T18:41:34.228Z,70.62
2019-02-25T18:44:04.484Z,61.18
2019-02-25T18:46:33.037Z,57.20
2019-02-25T18:49:03.023Z,54.83
2019-02-25T18:51:32.864Z,64.77
2019-02-25T18:54:03.708Z,64.62
2019-02-25T18:56:33.664Z,67.08
2019-02-25T18:59:08.257Z,66.25
2019-02-25T19:01:33.215Z,74.95
2019-02-25T19:04:02.634Z,61.08
2019-02-25T19:06:31.288Z,67.03
2019-02-25T19:08:59.917Z,61.45
2019-02-25T19:11:28.661Z,66.80
2019-02-25T19:14:01.251Z,67.82
2019-02-25T19:16:27.799Z,71.92
2019-02-25T19:18:56.349Z,70.87
2019-02-25T19:21:27.181Z,92.80
2019-02-25T19:23:55.537Z,79.07
2019-02-25T19:26:24.207Z,76.37
2019-02-25T19:28:54.594Z,85.67
2019-02-25T19:31:30.287Z,64.27
2019-02-25T19:34:02.170Z,71.55
2019-02-25T19:36:34.396Z,70.78
2019-02-25T19:39:07.735Z,66.50
2019-02-25T19:41:40.187Z,60.90
2019-02-25T19:44:10.445Z,58.05
2019-02-25T19:46:39.369Z,60.43
2019-02-25T19:49:09.260Z,64.55
2019-02-25T19:51:38.278Z,56.58
2019-02-25T19:54:11.492Z,65.28
2019-02-25T19:56:39.692Z,61.18
2019-02-25T19:59:09.626Z,70.67
2019-02-25T20:01:39.351Z,60.20
2019-02-25T20:04:12.181Z,57.10
2019-02-25T20:06:44.655Z,58.78
2019-02-25T20:09:15.677Z,57.30
2019-02-25T20:11:45.184Z,58.78
2019-02-25T20:14:16.727Z,55.58
2019-02-25T20:16:46.566Z,52.70
2019-02-25T20:19:16.665Z,58.08
2019-02-25T20:21:48.250Z,52.43
2019-02-25T20:24:16.915Z,57.75
2019-02-25T20:26:48.647Z,57.48
2019-02-25T20:29:19.823Z,75.42
2019-02-25T20:31:50.123Z,75.42
2019-02-25T20:34:20.525Z,72.92
2019-02-25T20:36:50.475Z,72.78
2019-02-25T20:39:18.925Z,76.45
2019-02-25T20:41:48.338Z,78.57
2019-02-25T20:44:18.560Z,68.22
2019-02-25T20:46:50.638Z,72.12
2019-02-25T20:49:18.779Z,67.67
2019-02-25T20:51:50.086Z,70.40
2019-02-25T20:54:23.086Z,75.47
2019-02-25T20:56:53.215Z,84.83
2019-02-25T20:59:23.453Z,67.87
2019-02-25T21:01:54.494Z,84.97
2019-02-25T21:04:23.203Z,75.25
2019-02-25T21:06:51.840Z,80.85
2019-02-25T21:09:22.137Z,77.92
2019-02-25T21:11:53.893Z,77.70
2019-02-25T21:14:22.373Z,81.82
2019-02-25T21:16:52.127Z,79.82
2019-02-25T21:19:21.038Z,86.05
2019-02-25T21:21:52.961Z,85.42
2019-02-25T21:24:31.154Z,92.40
2019-02-25T21:27:01.496Z,86.75
2019-02-25T21:29:34.825Z,74.75
2019-02-25T21:32:03.045Z,68.47
2019-02-25T21:34:32.951Z,78.52
2019-02-25T21:37:03.018Z,82.10
2019-02-25T21:39:32.633Z,76.67
2019-02-25T21:42:02.092Z,75.97
2019-02-25T21:44:31.598Z,91.22
2019-02-25T21:47:01.117Z,74.97
2019-02-25T21:49:33.778Z,82.00
2019-02-25T21:52:02.434Z,77.27
2019-02-25T21:54:37.451Z,74.58
2019-02-25T21:57:03.290Z,69.05
2019-02-25T21:59:34.378Z,69.17
2019-02-25T22:02:08.376Z,67.42
2019-02-25T22:07:33.153Z,69.72
2019-02-25T22:10:14.373Z,68.83
2019-02-25T22:12:44.338Z,56.75
2019-02-25T22:15:20.361Z,59.58
2019-02-25T22:17:52.340Z,67.17
2019-02-25T22:20:22.461Z,57.05
2019-02-25T22:23:03.646Z,60.45
2019-02-25T22:25:38.840Z,68.87
2019-02-25T22:28:12.428Z,74.35
2019-02-25T22:30:49.765Z,70.25
2019-02-25T22:33:27.737Z,65.05
2019-02-25T22:38:24.994Z,77.45
2019-02-25T22:44:24.752Z,66.45
2019-02-25T22:46:58.128Z,65.35
2019-02-25T22:49:28.883Z,58.75
2019-02-25T22:51:58.193Z,62.60
2019-02-25T22:54:30.407Z,58.08
2019-02-25T22:57:01.725Z,54.67
2019-02-25T23:00:19.796Z,56.63
2019-02-25T23:02:43.460Z,65.45
2019-02-25T23:05:23.744Z,56.68
2019-02-25T23:07:54.708Z,57.30
2019-02-25T23:10:25.305Z,58.68
2019-02-25T23:12:53.792Z,60.40
2019-02-25T23:15:23.304Z,60.28
2019-02-25T23:18:04.416Z,54.13
2019-02-25T23:30:18.790Z,54.00
2019-02-25T23:33:04.595Z,62.33
2019-02-25T23:35:33.289Z,80.97
2019-02-25T23:38:02.071Z,61.60
2019-02-25T23:40:33.299Z,66.17
2019-02-25T23:43:03.008Z,61.40
2019-02-25T23:45:31.189Z,58.00
2019-02-25T23:48:01.473Z,66.25
2019-02-25T23:50:31.737Z,58.68
2019-02-25T23:53:00.486Z,64.00
2019-02-25T23:55:29.707Z,68.47
2019-02-25T23:57:58.400Z,61.95
